Accueil
METAR-TAF:

METAR-TAF

Aéroports :

Caen, France

Aéroport de Caen - Carpiquet

latitude: 49-11N, longitude: 000-27W, altitude: 78 m

Observation

Le bulletin a été fait il y a 39 minutes, à 01:00 UTC
Vent 8 kt de ouest
Température 14°C
Humidité 82%
Pression 1023 hPa
Visibilité 10 km ou plus
pas de nuages en-dessous de 1500 mètres et pas de cumulonimbus.

METAR: LFRK 170100Z AUTO 26008KT CAVOK 14/11 Q1023

Heure: 03:39 (01:39 UTC)

Prévision

Le bulletin a été fait il y a 11 heures et 39 minutes, à 14:00 UTC
Prévision valable du 16 à 15 UTC au 16 à 24 UTC
Vent 12 kt de sud-ouest
Visibilité 10 km ou plus
Nuages épars à une hauteur de 4500 ft

TAF: LFRK 161400Z 1615/1624 23012KT 9999 SCT045

Observations et prévisions météorologiques de plus de 4000 aéroports (messages METAR et TAF).

Les stations disponibles sont représentées par des disques jaunes et rouges sur la carte.

Passer la souris dessus pour voir le nom de la station.

Cliquer dessus pour voir les observations et prévisions météorologiques.

Pour changer de carte: cliquez sur les boutons verts avec une croix noire pour zoomer, sur le bouton vert avec un tiret pour effectuer un zoom arrière, ou sur les flèches vertes pour les cartes adjacentes.


METAR-TAF: